createdAt,value
2022-09-13T00:00:11.013Z,99453.91
2022-09-13T00:02:39.251Z,99452.84
2022-09-13T00:05:06.544Z,99452.47
2022-09-13T00:07:39.592Z,99447.69
2022-09-13T00:10:06.886Z,99447.56
2022-09-13T00:12:33.869Z,99445.91
2022-09-13T00:15:02.030Z,99451.47
2022-09-13T00:17:54.438Z,99447.19
2022-09-13T00:20:21.320Z,99439.38
2022-09-13T00:22:49.343Z,99433.13
2022-09-13T00:25:20.924Z,99431.22
2022-09-13T00:28:08.660Z,99435.88
2022-09-13T00:30:44.587Z,99425.03
2022-09-13T00:33:16.621Z,99431.88
2022-09-13T00:36:03.423Z,99426.59
2022-09-13T00:38:30.475Z,99430.38
2022-09-13T00:41:00.434Z,99430.47
2022-09-13T00:43:49.541Z,99424.09
2022-09-13T00:46:31.891Z,99420.63
2022-09-13T00:49:34.664Z,99426.97
2022-09-13T00:52:08.169Z,99423.19
2022-09-13T00:54:53.323Z,99412.81
2022-09-13T00:57:42.893Z,99413.38
2022-09-13T01:00:16.896Z,99409.19
2022-09-13T01:03:01.280Z,99414.28
2022-09-13T01:05:53.329Z,99421.66
2022-09-13T01:08:31.635Z,99412.94
2022-09-13T01:11:01.979Z,99405.09
2022-09-13T01:13:39.329Z,99398.38
2022-09-13T01:16:21.529Z,99391.38
2022-09-13T01:18:49.816Z,99397.44
2022-09-13T01:22:02.446Z,99401.13
2022-09-13T01:25:01.441Z,99396.25
2022-09-13T01:28:10.167Z,99387.28
2022-09-13T01:31:02.479Z,99387.38
2022-09-13T01:33:36.954Z,99387.19
2022-09-13T01:36:25.719Z,99388.69
2022-09-13T01:39:06.406Z,99385.19
2022-09-13T01:45:28.613Z,99388.88
2022-09-13T01:48:16.611Z,99382.13
2022-09-13T01:51:05.766Z,99388.50
2022-09-13T01:53:45.085Z,99385.69
2022-09-13T01:56:28.161Z,99379.66
2022-09-13T01:59:16.862Z,99378.81
2022-09-13T02:02:00.844Z,99371.94
2022-09-13T02:04:32.963Z,99365.63
2022-09-13T02:08:11.846Z,99364.88
2022-09-13T02:10:47.738Z,99365.09
2022-09-13T02:13:21.523Z,99357.81
2022-09-13T02:15:58.486Z,99362.94
2022-09-13T02:18:40.669Z,99357.78
2022-09-13T02:21:24.274Z,99357.69
2022-09-13T02:24:00.834Z,99347.75
2022-09-13T02:26:40.863Z,99360.03
2022-09-13T02:29:14.731Z,99358.44
2022-09-13T02:31:50.456Z,99349.69
2022-09-13T02:34:25.772Z,99350.06
2022-09-13T02:37:02.204Z,99360.09
2022-09-13T02:39:33.373Z,99353.00
2022-09-13T02:42:41.030Z,99344.78
2022-09-13T02:45:12.530Z,99342.72
2022-09-13T02:47:47.971Z,99337.75
2022-09-13T02:50:42.863Z,99353.44
2022-09-13T02:53:34.482Z,99341.09
2022-09-13T02:56:11.500Z,99348.66
2022-09-13T02:58:52.343Z,99340.28
2022-09-13T03:01:21.883Z,99342.31
2022-09-13T03:03:54.934Z,99337.72
2022-09-13T03:06:44.594Z,99342.94
2022-09-13T03:09:13.011Z,99336.13
2022-09-13T03:12:06.129Z,99328.03
2022-09-13T03:14:34.027Z,99330.78
2022-09-13T03:17:08.360Z,99332.63
2022-09-13T03:19:50.286Z,99329.09
2022-09-13T03:22:24.534Z,99323.91
2022-09-13T03:25:18.160Z,99324.09
2022-09-13T03:28:35.010Z,99316.13
2022-09-13T03:31:12.237Z,99314.78
2022-09-13T03:34:31.174Z,99311.09
2022-09-13T03:37:35.587Z,99313.22
2022-09-13T03:40:13.838Z,99305.94
2022-09-13T03:42:52.299Z,99302.50
2022-09-13T03:45:31.540Z,99300.91
2022-09-13T03:47:59.769Z,99302.38
2022-09-13T03:50:34.041Z,99288.66
2022-09-13T03:53:15.842Z,99297.22
2022-09-13T03:55:44.070Z,99300.69
2022-09-13T03:58:17.339Z,99286.69
2022-09-13T04:00:58.086Z,99284.84
2022-09-13T04:03:25.152Z,99280.06
2022-09-13T04:05:54.461Z,99274.50
2022-09-13T04:08:21.430Z,99280.34
2022-09-13T04:10:51.138Z,99275.44
2022-09-13T04:13:18.418Z,99278.81
2022-09-13T04:15:48.575Z,99269.59
2022-09-13T04:18:22.557Z,99266.81
2022-09-13T04:21:02.088Z,99269.25
2022-09-13T04:23:35.337Z,99267.69
2022-09-13T04:26:05.476Z,99259.78
2022-09-13T04:28:32.501Z,99258.16
2022-09-13T04:31:02.432Z,99254.56
2022-09-13T04:33:38.521Z,99260.69
2022-09-13T04:36:07.659Z,99239.72
2022-09-13T04:38:41.966Z,99246.19
2022-09-13T04:41:11.238Z,99240.75
2022-09-13T04:43:50.896Z,99251.31
2022-09-13T04:46:19.082Z,99254.50
2022-09-13T04:48:52.487Z,99251.66
2022-09-13T04:51:26.728Z,99264.16
2022-09-13T04:54:15.271Z,99265.88
2022-09-13T04:56:47.512Z,99270.78
2022-09-13T04:59:17.088Z,99263.34
2022-09-13T05:01:54.362Z,99273.50
2022-09-13T05:04:21.407Z,99273.94
2022-09-13T05:06:55.609Z,99261.78
2022-09-13T05:09:30.685Z,99266.69
2022-09-13T05:11:57.710Z,99266.13
2022-09-13T05:14:24.684Z,99270.38
2022-09-13T05:16:51.939Z,99266.94
2022-09-13T05:19:21.109Z,99270.13
2022-09-13T05:21:50.178Z,99272.38
2022-09-13T05:24:27.363Z,99263.72
2022-09-13T05:26:54.568Z,99270.19
2022-09-13T05:29:21.754Z,99260.25
2022-09-13T05:31:50.777Z,99264.25
2022-09-13T05:34:19.754Z,99268.50
2022-09-13T05:36:54.138Z,99270.59
2022-09-13T05:39:43.762Z,99274.22
2022-09-13T05:42:15.602Z,99270.03
2022-09-13T05:45:07.169Z,99273.16
2022-09-13T05:47:37.588Z,99268.41
2022-09-13T05:50:23.148Z,99266.72
2022-09-13T05:53:04.674Z,99266.16
2022-09-13T05:55:34.567Z,99265.88
2022-09-13T05:58:03.079Z,99268.47
2022-09-13T06:00:32.750Z,99262.75
2022-09-13T06:02:59.734Z,99259.50
2022-09-13T06:05:29.934Z,99255.53
2022-09-13T06:08:00.105Z,99262.41
2022-09-13T06:10:27.106Z,99260.50
2022-09-13T06:12:55.144Z,99257.72
2022-09-13T06:15:22.308Z,99257.09
2022-09-13T06:17:50.449Z,99255.25
2022-09-13T06:20:18.639Z,99264.34
2022-09-13T06:22:52.796Z,99260.13
2022-09-13T06:25:21.887Z,99247.34
2022-09-13T06:27:50.182Z,99253.88
2022-09-13T06:30:19.905Z,99253.31
2022-09-13T06:32:47.891Z,99259.75
2022-09-13T06:35:14.989Z,99252.09
2022-09-13T06:37:42.024Z,99244.81
2022-09-13T06:40:09.856Z,99248.06
2022-09-13T06:42:37.571Z,99251.94
2022-09-13T06:45:06.730Z,99249.88
2022-09-13T06:47:33.909Z,99249.19
2022-09-13T06:50:02.396Z,99249.41
2022-09-13T06:52:30.380Z,99237.91
2022-09-13T06:54:58.431Z,99245.94
2022-09-13T06:57:26.594Z,99240.97
2022-09-13T06:59:54.690Z,99236.75
2022-09-13T07:02:22.838Z,99240.53
2022-09-13T07:04:50.893Z,99246.06
2022-09-13T07:07:19.863Z,99242.09
2022-09-13T07:09:46.947Z,99241.72
2022-09-13T07:12:19.991Z,99235.84
2022-09-13T07:14:47.680Z,99240.03
2022-09-13T07:17:33.666Z,99233.94
2022-09-13T07:20:02.805Z,99242.63
2022-09-13T07:22:31.862Z,99241.69
2022-09-13T07:24:58.846Z,99237.28
2022-09-13T07:27:28.006Z,99244.41
2022-09-13T07:30:19.388Z,99245.91
2022-09-13T07:32:46.330Z,99248.91
2022-09-13T07:35:13.565Z,99240.84
2022-09-13T07:37:42.583Z,99238.72
2022-09-13T07:40:10.177Z,99235.31
2022-09-13T07:42:37.225Z,99228.72
2022-09-13T07:45:06.770Z,99232.13
2022-09-13T07:47:37.024Z,99219.78
2022-09-13T07:50:05.189Z,99232.44
2022-09-13T07:52:36.927Z,99228.72
2022-09-13T07:55:04.669Z,99225.47
2022-09-13T07:57:31.906Z,99227.03
2022-09-13T07:59:59.973Z,99229.78
2022-09-13T08:02:27.050Z,99231.47
2022-09-13T08:04:55.093Z,99221.84
2022-09-13T08:07:35.608Z,99227.31
2022-09-13T08:10:09.018Z,99232.31
2022-09-13T08:12:35.931Z,99232.59
2022-09-13T08:15:04.706Z,99233.25
2022-09-13T08:17:31.760Z,99226.25
2022-09-13T08:19:59.118Z,99231.50
2022-09-13T08:22:26.158Z,99228.34
2022-09-13T08:24:53.329Z,99232.94
2022-09-13T08:27:26.066Z,99236.94
2022-09-13T08:30:00.250Z,99233.22
2022-09-13T08:32:29.464Z,99234.66
2022-09-13T08:34:58.034Z,99239.28
2022-09-13T08:37:29.332Z,99226.94
2022-09-13T08:39:57.479Z,99227.72
2022-09-13T08:42:46.428Z,99229.66
2022-09-13T08:45:20.751Z,99221.41
2022-09-13T08:48:27.137Z,99219.13
2022-09-13T08:51:03.970Z,99212.81
2022-09-13T08:53:32.634Z,99218.25
2022-09-13T08:56:13.428Z,99213.41
2022-09-13T08:59:29.692Z,99213.78
2022-09-13T09:02:37.046Z,99206.81
2022-09-13T09:05:15.232Z,99202.94
2022-09-13T09:07:52.377Z,99192.09
2022-09-13T09:10:24.592Z,99195.31
2022-09-13T09:12:59.970Z,99186.81
2022-09-13T09:15:34.943Z,99196.66
2022-09-13T09:18:32.869Z,99188.19
2022-09-13T09:21:02.422Z,99182.97
2022-09-13T09:23:55.058Z,99188.66
2022-09-13T09:26:31.310Z,99190.00
2022-09-13T09:29:26.041Z,99188.84
2022-09-13T09:32:03.654Z,99189.81
2022-09-13T09:34:43.039Z,99189.94
2022-09-13T09:37:26.974Z,99178.94
2022-09-13T09:40:01.542Z,99172.03
2022-09-13T09:42:33.238Z,99169.84
2022-09-13T09:45:07.094Z,99162.94
2022-09-13T09:47:42.282Z,99161.09
2022-09-13T09:50:41.039Z,99159.97
2022-09-13T09:53:54.371Z,99155.41
2022-09-13T09:56:52.793Z,99156.13
2022-09-13T09:59:31.832Z,99152.72
2022-09-13T10:02:16.664Z,99158.97
2022-09-13T10:05:03.072Z,99139.72
2022-09-13T10:07:36.021Z,99134.13
2022-09-13T10:10:09.175Z,99127.78
2022-09-13T10:13:04.071Z,99121.72
2022-09-13T10:16:05.261Z,99129.38
2022-09-13T10:18:43.886Z,99123.78
2022-09-13T10:21:28.003Z,99121.31
2022-09-13T10:24:21.693Z,99118.59
2022-09-13T10:26:49.772Z,99114.75
2022-09-13T10:29:30.806Z,99099.16
2022-09-13T10:32:08.579Z,99095.69
2022-09-13T10:34:37.383Z,99093.19
2022-09-13T10:37:31.956Z,99088.09
2022-09-13T10:40:31.209Z,99090.84
2022-09-13T10:43:03.509Z,99088.69
2022-09-13T10:45:32.610Z,99089.75
2022-09-13T10:48:14.829Z,99084.91
2022-09-13T10:51:00.014Z,99079.16
2022-09-13T10:53:44.273Z,99073.06
2022-09-13T10:56:27.287Z,99077.13
2022-09-13T10:59:23.219Z,99074.09
2022-09-13T11:02:33.551Z,99061.13
2022-09-13T11:05:21.229Z,99072.75
2022-09-13T11:08:19.469Z,99056.06
2022-09-13T11:11:21.731Z,99048.41
2022-09-13T11:14:00.618Z,99048.13
2022-09-13T11:17:06.253Z,99040.81
2022-09-13T11:19:54.034Z,99047.38
2022-09-13T11:23:11.678Z,99043.69
2022-09-13T11:25:57.784Z,99042.41
2022-09-13T11:28:56.666Z,99032.94
2022-09-13T11:31:45.969Z,99032.69
2022-09-13T11:34:25.904Z,99025.91
2022-09-13T11:37:44.408Z,99023.34
2022-09-13T11:40:52.398Z,99014.66
2022-09-13T11:43:40.998Z,99017.91
2022-09-13T11:46:22.847Z,99014.50
2022-09-13T11:49:00.657Z,99008.50
2022-09-13T11:51:59.364Z,99011.69
2022-09-13T11:55:02.244Z,99010.41
2022-09-13T11:57:39.514Z,99002.34
2022-09-13T12:00:20.491Z,99001.09
2022-09-13T12:03:13.544Z,98997.66
2022-09-13T12:05:51.586Z,99000.81
2022-09-13T12:08:32.894Z,98998.88
2022-09-13T12:11:15.364Z,98995.06
2022-09-13T12:13:47.109Z,98996.91
2022-09-13T12:16:37.935Z,98986.66
2022-09-13T12:19:27.799Z,98982.13
2022-09-13T12:22:01.953Z,98976.91
2022-09-13T12:24:51.854Z,98970.50
2022-09-13T12:27:53.989Z,98972.19
2022-09-13T12:30:25.912Z,98974.13
2022-09-13T12:32:58.613Z,98968.88
2022-09-13T12:35:38.843Z,98967.09
2022-09-13T12:38:54.060Z,98964.09
2022-09-13T12:41:35.194Z,98954.22
2022-09-13T12:44:33.552Z,98959.03
2022-09-13T12:47:00.738Z,98947.56
2022-09-13T12:49:51.198Z,98943.50
2022-09-13T12:52:31.926Z,98947.44
2022-09-13T12:55:45.543Z,98952.13
2022-09-13T12:58:18.912Z,98952.94
2022-09-13T13:01:17.116Z,98943.59
2022-09-13T13:04:22.550Z,98931.78
2022-09-13T13:07:05.373Z,98932.69
2022-09-13T13:09:54.186Z,98927.19
2022-09-13T13:12:34.155Z,98930.44
2022-09-13T13:15:06.693Z,98926.59
2022-09-13T13:17:57.652Z,98924.88
2022-09-13T13:20:52.683Z,98920.81
2022-09-13T13:23:31.471Z,98919.88
2022-09-13T13:26:10.903Z,98912.47
2022-09-13T13:28:45.130Z,98918.19
2022-09-13T13:31:32.541Z,98920.03
2022-09-13T13:34:20.772Z,98929.94
2022-09-13T13:36:50.231Z,98920.19
2022-09-13T13:39:27.920Z,98919.34
2022-09-13T13:42:12.736Z,98919.81
2022-09-13T13:44:45.916Z,98910.88
2022-09-13T13:47:16.156Z,98916.13
2022-09-13T13:50:15.863Z,98920.13
2022-09-13T13:52:55.674Z,98906.59
2022-09-13T13:55:40.023Z,98896.53
2022-09-13T13:58:45.396Z,98911.81
2022-09-13T14:01:18.814Z,98897.91
2022-09-13T14:04:19.674Z,98900.19
2022-09-13T14:06:56.977Z,98896.88
2022-09-13T14:10:02.376Z,98892.69
2022-09-13T14:12:50.453Z,98886.00
2022-09-13T14:15:55.205Z,98888.44
2022-09-13T14:18:50.803Z,98887.81
2022-09-13T14:21:30.811Z,98886.88
2022-09-13T14:24:23.819Z,98885.34
2022-09-13T14:27:09.238Z,98884.44
2022-09-13T14:29:46.813Z,98878.50
2022-09-13T14:32:20.346Z,98869.00
2022-09-13T14:35:02.685Z,98868.16
2022-09-13T14:37:38.928Z,98862.16
2022-09-13T14:40:09.072Z,98855.53
2022-09-13T14:42:46.400Z,98852.81
2022-09-13T14:45:15.243Z,98856.38
2022-09-13T14:47:59.700Z,98860.41
2022-09-13T14:50:39.974Z,98849.66
2022-09-13T14:53:31.787Z,98856.03
2022-09-13T14:56:11.638Z,98855.31
2022-09-13T14:58:54.523Z,98848.75
2022-09-13T15:01:34.298Z,98843.69
2022-09-13T15:04:04.875Z,98842.72
2022-09-13T15:06:44.572Z,98835.13
2022-09-13T15:09:12.539Z,98840.66
2022-09-13T15:12:02.014Z,98833.00
2022-09-13T15:14:40.274Z,98828.19
2022-09-13T15:17:12.921Z,98825.38
2022-09-13T15:19:42.229Z,98835.50
2022-09-13T15:22:15.017Z,98841.38
2022-09-13T15:24:52.065Z,98836.13
2022-09-13T15:27:26.554Z,98839.25
2022-09-13T15:30:04.116Z,98839.72
2022-09-13T15:32:32.967Z,98841.81
2022-09-13T15:35:01.439Z,98833.59
2022-09-13T15:37:38.381Z,98838.25
2022-09-13T15:40:19.583Z,98836.97
2022-09-13T15:42:50.545Z,98833.16
2022-09-13T15:45:20.268Z,98833.53
2022-09-13T15:47:52.750Z,98839.09
2022-09-13T15:50:42.088Z,98842.91
2022-09-13T15:53:12.965Z,98833.16
2022-09-13T15:55:58.627Z,98834.97
2022-09-13T15:58:37.127Z,98827.31
2022-09-13T16:01:07.476Z,98823.53
2022-09-13T16:03:41.728Z,98818.72
2022-09-13T16:06:09.903Z,98830.13
2022-09-13T16:08:38.317Z,98827.88
2022-09-13T16:11:06.140Z,98824.47
2022-09-13T16:13:33.541Z,98825.66
2022-09-13T16:16:00.845Z,98820.84
2022-09-13T16:18:27.880Z,98821.00
2022-09-13T16:21:00.830Z,98812.66
2022-09-13T16:23:38.001Z,98811.28
2022-09-13T16:26:11.227Z,98813.28
2022-09-13T16:28:40.346Z,98805.97
2022-09-13T16:31:07.277Z,98809.41
2022-09-13T16:33:40.287Z,98813.09
2022-09-13T16:36:22.405Z,98810.44
2022-09-13T16:38:49.651Z,98804.69
2022-09-13T16:41:19.714Z,98802.13
2022-09-13T16:43:46.749Z,98808.03
2022-09-13T16:46:16.980Z,98803.53
2022-09-13T16:48:46.227Z,98810.16
2022-09-13T16:51:15.437Z,98796.59
2022-09-13T16:53:43.086Z,98805.50
2022-09-13T16:56:15.662Z,98803.78
2022-09-13T16:58:48.875Z,98807.19
2022-09-13T17:01:21.659Z,98811.97
2022-09-13T17:03:51.758Z,98804.63
2022-09-13T17:06:38.704Z,98816.91
2022-09-13T17:09:07.492Z,98806.88
2022-09-13T17:11:48.069Z,98802.50
2022-09-13T17:14:17.646Z,98801.25
2022-09-13T17:16:57.545Z,98807.03
2022-09-13T17:19:27.524Z,98805.47
2022-09-13T17:21:58.489Z,98797.25
2022-09-13T17:24:31.760Z,98793.91
2022-09-13T17:27:11.383Z,98796.41
2022-09-13T17:29:39.452Z,98792.84
2022-09-13T17:32:14.506Z,98789.59
2022-09-13T17:34:53.664Z,98786.88
2022-09-13T17:37:20.641Z,98788.66
2022-09-13T17:39:48.919Z,98787.97
2022-09-13T17:42:18.137Z,98786.13
2022-09-13T17:44:49.467Z,98785.81
2022-09-13T17:47:18.675Z,98789.75
2022-09-13T17:50:02.513Z,98788.34
2022-09-13T17:52:40.062Z,98784.69
2022-09-13T17:55:07.782Z,98787.63
2022-09-13T17:57:35.869Z,98788.56
2022-09-13T18:00:07.375Z,98790.81
2022-09-13T18:02:37.086Z,98796.66
2022-09-13T18:05:08.594Z,98792.81
2022-09-13T18:07:43.943Z,98791.19
2022-09-13T18:10:42.709Z,98784.69
2022-09-13T18:13:12.645Z,98785.56
2022-09-13T18:16:00.258Z,98788.97
2022-09-13T18:18:30.993Z,98795.94
2022-09-13T18:21:05.111Z,98796.66
2022-09-13T18:23:42.681Z,98783.63
2022-09-13T18:26:13.333Z,98792.84
2022-09-13T18:28:43.820Z,98795.41
2022-09-13T18:31:19.254Z,98787.22
2022-09-13T18:33:47.200Z,98787.72
2022-09-13T18:36:18.516Z,98788.66
2022-09-13T18:38:48.289Z,98785.63
2022-09-13T18:41:32.360Z,98785.13
2022-09-13T18:44:00.244Z,98784.31
2022-09-13T18:46:35.865Z,98778.53
2022-09-13T18:49:04.483Z,98786.41
2022-09-13T18:51:45.054Z,98789.22
2022-09-13T18:54:18.637Z,98776.00
2022-09-13T18:56:49.935Z,98790.50
2022-09-13T18:59:17.719Z,98788.81
2022-09-13T19:01:45.971Z,98790.56
2022-09-13T19:04:16.793Z,98791.56
2022-09-13T19:06:56.528Z,98787.13
2022-09-13T19:09:30.856Z,98788.47
2022-09-13T19:12:00.366Z,98779.88
2022-09-13T19:14:29.669Z,98780.91
2022-09-13T19:17:01.123Z,98784.22
2022-09-13T19:19:32.845Z,98786.66
2022-09-13T19:22:03.239Z,98791.47
2022-09-13T19:24:34.405Z,98771.75
2022-09-13T19:27:05.881Z,98774.75
2022-09-13T19:29:33.563Z,98779.53
2022-09-13T19:32:03.335Z,98770.56
2022-09-13T19:34:31.723Z,98775.28
2022-09-13T19:37:01.164Z,98770.75
2022-09-13T19:39:30.296Z,98770.69
2022-09-13T19:42:01.095Z,98773.38
2022-09-13T19:44:35.469Z,98770.28
2022-09-13T19:48:02.258Z,98769.97
2022-09-13T19:50:08.260Z,98759.41
2022-09-13T19:52:46.471Z,98765.88
2022-09-13T19:55:13.858Z,98765.03
2022-09-13T19:57:51.457Z,98767.88
2022-09-13T20:00:22.778Z,98770.16
2022-09-13T20:02:50.059Z,98763.63
2022-09-13T20:05:18.379Z,98768.09
2022-09-13T20:07:45.914Z,98766.56
2022-09-13T20:10:16.207Z,98762.75
2022-09-13T20:12:46.605Z,98760.91
2022-09-13T20:15:14.318Z,98761.09
2022-09-13T20:17:42.703Z,98760.00
2022-09-13T20:20:10.058Z,98760.25
2022-09-13T20:22:37.680Z,98770.03
2022-09-13T20:25:06.080Z,98773.28
2022-09-13T20:27:34.079Z,98773.59
2022-09-13T20:30:01.815Z,98769.25
2022-09-13T20:32:33.700Z,98769.25
2022-09-13T20:35:01.937Z,98774.47
2022-09-13T20:37:46.640Z,98758.53
2022-09-13T20:40:14.475Z,98765.88
2022-09-13T20:42:43.190Z,98766.94
2022-09-13T20:45:17.261Z,98764.78
2022-09-13T20:47:45.678Z,98762.06
2022-09-13T20:50:13.276Z,98760.78
2022-09-13T20:52:41.097Z,98759.06
2022-09-13T20:55:09.777Z,98759.59
2022-09-13T20:57:37.146Z,98758.09
2022-09-13T21:00:11.025Z,98760.91
2022-09-13T21:02:42.416Z,98758.94
2022-09-13T21:05:18.932Z,98757.75
2022-09-13T21:08:12.616Z,98753.44
2022-09-13T21:10:39.843Z,98751.97
2022-09-13T21:13:11.810Z,98749.94
2022-09-13T21:15:39.429Z,98745.03
2022-09-13T21:18:06.406Z,98745.44
2022-09-13T21:21:00.499Z,98751.09
2022-09-13T21:23:32.108Z,98751.97
2022-09-13T21:26:07.360Z,98745.94
2022-09-13T21:28:43.567Z,98750.31
2022-09-13T21:31:25.302Z,98748.81
2022-09-13T21:34:01.856Z,98744.69
2022-09-13T21:36:30.047Z,98742.78
2022-09-13T21:38:57.570Z,98742.03
2022-09-13T21:41:26.447Z,98753.25
2022-09-13T21:43:54.904Z,98749.84
2022-09-13T21:46:28.556Z,98747.44
2022-09-13T21:49:03.188Z,98745.25
2022-09-13T21:51:44.415Z,98733.59
2022-09-13T21:54:14.647Z,98739.91
2022-09-13T21:56:45.309Z,98741.66
2022-09-13T21:59:20.380Z,98744.69
2022-09-13T22:01:54.830Z,98740.22
2022-09-13T22:04:34.631Z,98738.41
2022-09-13T22:07:02.731Z,98740.69
2022-09-13T22:09:33.647Z,98744.06
2022-09-13T22:12:01.817Z,98727.84
2022-09-13T22:14:53.046Z,98725.91
2022-09-13T22:17:20.257Z,98738.00
2022-09-13T22:19:59.385Z,98737.53
2022-09-13T22:22:26.604Z,98729.03
2022-09-13T22:24:53.593Z,98733.91
2022-09-13T22:27:21.823Z,98739.03
2022-09-13T22:29:49.961Z,98736.22
2022-09-13T22:32:22.552Z,98726.06
2022-09-13T22:34:53.616Z,98729.03
2022-09-13T22:37:21.694Z,98730.97
2022-09-13T22:39:48.896Z,98723.19
2022-09-13T22:42:17.069Z,98721.72
2022-09-13T22:44:47.147Z,98722.19
2022-09-13T22:47:33.513Z,98718.81
2022-09-13T22:50:01.498Z,98715.53
2022-09-13T22:52:34.533Z,98708.09
2022-09-13T22:55:03.773Z,98703.50
2022-09-13T22:57:31.778Z,98707.84
2022-09-13T23:00:00.830Z,98705.25
2022-09-13T23:02:47.189Z,98709.94
2022-09-13T23:05:15.376Z,98712.88
2022-09-13T23:07:44.362Z,98713.06
2022-09-13T23:10:23.496Z,98711.53
2022-09-13T23:12:50.728Z,98715.22
2022-09-13T23:15:20.188Z,98708.81
2022-09-13T23:17:49.441Z,98718.88
2022-09-13T23:20:16.726Z,98719.41
2022-09-13T23:22:43.677Z,98705.50
2022-09-13T23:25:12.781Z,98708.03
2022-09-13T23:27:48.783Z,98708.69
2022-09-13T23:30:17.080Z,98711.13
2022-09-13T23:32:48.754Z,98720.00
2022-09-13T23:35:17.292Z,98721.09
2022-09-13T23:37:49.471Z,98715.63
2022-09-13T23:40:16.658Z,98716.75
2022-09-13T23:42:43.816Z,98718.09
2022-09-13T23:45:17.094Z,98716.69
2022-09-13T23:47:44.011Z,98714.88
2022-09-13T23:50:12.226Z,98707.44
2022-09-13T23:52:39.406Z,98708.19
2022-09-13T23:55:08.054Z,98705.69
2022-09-13T23:57:36.086Z,98715.69
